ETNH

Hohn Airport

Germany
METAR ETNH 241120Z 33012KT 9999 SCT020CB 11/05 Q1026 RESHRA BLU+BLU+ TEMPO GRN
Observed Flight Rules
Sep-24 @ 11:20 UTC (13 minutes ago) Visual Flight Rules
Wind Visibility Clouds
330° at 12 knots 10,000+ meters
  • Scattered at 2,000' AGL
Temperatures Readings
Current 11°C / 52°F
Dewpoint 5°C / 41°F
Humidity 67%
Altimeter 30.3" Hg
Pressure 1026 hPa
Elevation 17
METAR ETNH 241120Z 33012KT 9999 SCT020CB 11/05 Q1026 RESHRA BLU+BLU+ TEMPO GRN
Observed Flight Rules
Sep-24 @ 11:20 UTC
(13 minutes ago)
VFR
Wind Visibility
330° at 12 knots 10,000+ meters
Clouds
  • Scattered at 2,000' AGL
Temperature Dewpoint
11°C / 52°F 5°C / 41°F
Humidity Altimeter Pressure
67% 30.3" Hg 1026 hPa